Time;durP1;ratioP1;P1;durP2;ratioP2;P2;SDS_P1;SDS_P2;PMS_P1;PMS_P2;Temp;Humidity;BMP_temperature;BMP_pressure;BME280_temperature;BME280_humidity;BME280_pressure;Samples;Min_cycle;Max_cycle;Signal;HPM_P1;HPM_P2
2021/12/11 00:02:08;;;;;;;58.33;23.85;;;;;;;3.52;92.54;96693.69;1715369;83;20967;-81
2021/12/11 00:04:40;;;;;;;57.08;24.18;;;;;;;3.51;92.53;96702.02;1715450;83;21027;-80
2021/12/11 00:07:12;;;;;;;59.13;24.50;;;;;;;3.51;92.42;96700.70;1715335;84;21412;-81
2021/12/11 00:09:43;;;;;;;55.40;24.50;;;;;;;3.51;92.53;96695.91;1715801;84;21038;-80
2021/12/11 00:12:21;;;;;;;52.38;23.10;;;;;;;3.52;92.87;96685.83;1717500;83;21144;-80
2021/12/11 00:15:05;;;;;;;52.05;23.22;;;;;;;3.54;92.60;96695.84;1725523;83;21069;-81
2021/12/11 00:17:33;;;;;;;56.75;23.90;;;;;;;3.51;93.56;96692.84;1726228;83;21479;-81
2021/12/11 00:20:02;;;;;;;56.05;22.52;;;;;;;3.50;92.80;96692.44;1726113;83;20998;-81
2021/12/11 00:22:31;;;;;;;54.40;23.02;;;;;;;3.52;92.55;96688.45;1726248;83;21022;-81
2021/12/11 00:25:05;;;;;;;53.45;24.80;;;;;;;3.50;93.40;96696.81;1726108;83;21050;-81
2021/12/11 00:27:35;;;;;;;54.33;22.73;;;;;;;3.50;92.76;96695.06;1726030;83;21470;-81
2021/12/11 00:30:04;;;;;;;59.08;24.10;;;;;;;3.51;92.46;96705.08;1725926;83;21085;-81
2021/12/11 00:32:34;;;;;;;57.43;24.47;;;;;;;3.46;93.52;96710.86;1726138;83;21439;-81
2021/12/11 00:35:09;;;;;;;56.35;23.30;;;;;;;3.42;93.17;96700.91;1725791;83;21010;-81
2021/12/11 00:37:37;;;;;;;51.83;22.93;;;;;;;3.43;92.96;96706.55;1725898;83;20998;-81
2021/12/11 00:40:26;;;;;;;59.83;23.60;;;;;;;3.51;92.73;96709.00;1726029;83;21073;-81
2021/12/11 00:42:57;;;;;;;52.38;21.85;;;;;;;3.55;92.60;96697.12;1726122;83;21416;-81
2021/12/11 00:45:29;;;;;;;49.95;21.30;;;;;;;3.59;92.40;96708.39;1725913;83;21487;-81
2021/12/11 00:48:09;;;;;;;50.52;21.15;;;;;;;3.61;92.57;96699.20;1725922;83;21046;-81
2021/12/11 00:50:44;;;;;;;57.43;23.05;;;;;;;3.65;92.63;96708.25;1725244;83;21065;-81
2021/12/11 00:53:18;;;;;;;49.27;20.85;;;;;;;3.70;92.69;96712.09;1725725;83;21082;-82
2021/12/11 00:55:51;;;;;;;47.90;21.12;;;;;;;3.78;92.83;96717.99;1726129;83;21019;-82
2021/12/11 00:58:23;;;;;;;52.03;20.80;;;;;;;3.81;92.72;96719.69;1725524;83;21011;-82
2021/12/11 01:01:10;;;;;;;50.65;22.00;;;;;;;3.81;92.72;96724.92;1721948;83;21452;-82
2021/12/11 01:04:06;;;;;;;54.18;23.10;;;;;;;3.86;92.93;96720.91;1726011;83;21539;-82
2021/12/11 01:06:51;;;;;;;55.52;23.77;;;;;;;3.80;92.73;96725.39;1725744;83;21034;-82
2021/12/11 01:09:23;;;;;;;53.73;21.82;;;;;;;3.81;92.72;96723.17;1725818;83;21050;-82
2021/12/11 01:12:02;;;;;;;43.45;20.52;;;;;;;3.78;92.44;96728.95;1725863;83;21061;-82
2021/12/11 01:14:36;;;;;;;50.70;21.90;;;;;;;3.75;92.83;96727.26;1684902;83;21056;-81
2021/12/11 01:17:17;;;;;;;47.15;20.40;;;;;;;3.74;92.99;96729.44;1674164;85;21449;-81
2021/12/11 01:19:45;;;;;;;48.63;21.07;;;;;;;3.69;92.86;96744.41;1684027;85;21057;-81
2021/12/11 01:22:32;;;;;;;45.85;20.97;;;;;;;3.66;92.95;96741.88;1684676;85;21123;-81
2021/12/11 01:24:53;;;;;;;52.60;21.77;;;;;;;3.63;92.81;96745.86;1682604;85;21039;-81
2021/12/11 01:27:24;;;;;;;55.80;22.05;;;;;;;3.61;93.14;96739.80;1684553;85;21036;-81
2021/12/11 01:29:56;;;;;;;51.40;20.82;;;;;;;3.60;93.14;96740.23;1684684;84;21028;-81
2021/12/11 01:32:26;;;;;;;51.85;22.42;;;;;;;3.59;92.75;96738.95;1684229;84;21028;-81
2021/12/11 01:34:53;;;;;;;50.43;22.58;;;;;;;3.57;92.87;96741.61;1684667;85;20992;-81
2021/12/11 01:37:20;;;;;;;52.08;21.85;;;;;;;3.55;92.76;96739.05;1684533;85;21488;-81
2021/12/11 01:39:50;;;;;;;49.63;22.40;;;;;;;3.53;92.31;96731.65;1684344;85;21070;-83
2021/12/11 01:42:22;;;;;;;49.03;20.68;;;;;;;3.51;92.61;96739.13;1684430;85;21106;-81
2021/12/11 01:44:52;;;;;;;48.55;21.07;;;;;;;3.50;93.02;96731.73;1684614;85;21052;-81
2021/12/11 01:47:27;;;;;;;48.40;20.65;;;;;;;3.47;92.94;96723.94;1683921;85;21071;-81
2021/12/11 01:49:59;;;;;;;46.70;21.35;;;;;;;3.42;93.12;96718.81;1683751;85;21028;-81
2021/12/11 01:52:40;;;;;;;52.08;22.87;;;;;;;3.38;92.78;96714.52;1682908;85;21482;-81
2021/12/11 01:55:12;;;;;;;53.28;21.57;;;;;;;3.32;93.80;96713.79;1684170;84;21068;-81
2021/12/11 01:57:39;;;;;;;44.77;20.90;;;;;;;3.29;93.30;96712.10;1684499;84;21035;-81
2021/12/11 02:00:18;;;;;;;48.13;20.65;;;;;;;3.25;93.43;96707.38;1684869;84;21018;-81
2021/12/11 02:02:49;;;;;;;45.23;20.85;;;;;;;3.20;93.49;96704.44;1684317;85;21035;-81
2021/12/11 02:05:24;;;;;;;40.58;20.40;;;;;;;3.14;93.96;96712.83;1684669;85;21552;-81
2021/12/11 02:07:56;;;;;;;44.42;19.90;;;;;;;3.12;93.79;96709.37;1684347;85;21879;-81
2021/12/11 02:10:35;;;;;;;47.62;21.23;;;;;;;3.14;93.33;96711.95;1683842;85;21099;-80
2021/12/11 02:13:06;;;;;;;49.15;20.88;;;;;;;3.13;94.17;96716.78;1684324;83;21095;-80
2021/12/11 02:15:38;;;;;;;49.83;21.50;;;;;;;3.08;93.59;96712.97;1684428;85;21437;-81
2021/12/11 02:18:32;;;;;;;49.15;20.88;;;;;;;3.08;93.30;96709.48;1684544;85;21476;-80
2021/12/11 02:21:01;;;;;;;48.98;21.37;;;;;;;3.10;93.03;96702.00;1683425;85;20980;-80
2021/12/11 02:23:28;;;;;;;50.23;21.55;;;;;;;3.09;92.87;96696.36;1683613;85;21012;-80
2021/12/11 02:25:59;;;;;;;46.77;20.15;;;;;;;3.10;93.16;96698.52;1684419;85;21000;-80
2021/12/11 02:28:37;;;;;;;48.38;20.52;;;;;;;3.13;93.48;96698.02;1684715;85;21052;-80
2021/12/11 02:31:34;;;;;;;49.90;21.27;;;;;;;3.16;93.20;96703.64;1684456;85;21175;-80
2021/12/11 02:34:08;;;;;;;47.40;19.82;;;;;;;3.24;93.05;96710.03;1684513;85;21048;-80
2021/12/11 02:36:45;;;;;;;48.48;20.40;;;;;;;3.26;93.20;96728.73;1684270;85;21054;-80
2021/12/11 02:39:38;;;;;;;50.00;20.23;;;;;;;3.29;93.34;96736.51;1684719;85;20999;-81
2021/12/11 02:42:19;;;;;;;49.58;20.05;;;;;;;3.35;93.44;96740.77;1684870;85;21489;-81
2021/12/11 02:44:59;;;;;;;44.15;19.37;;;;;;;3.39;93.57;96753.34;1684225;85;21011;-80
2021/12/11 02:47:43;;;;;;;40.92;18.42;;;;;;;3.33;93.34;96757.41;1684746;85;21052;-79
2021/12/11 02:50:21;;;;;;;39.23;17.63;;;;;;;3.24;93.37;96764.55;1684681;84;21070;-80
2021/12/11 02:53:02;;;;;;;40.63;16.90;;;;;;;3.12;93.65;96763.50;1683577;85;21040;-80
2021/12/11 02:55:52;;;;;;;40.73;17.65;;;;;;;3.06;93.87;96754.47;1684183;85;21051;-80
2021/12/11 02:58:30;;;;;;;39.23;17.07;;;;;;;3.01;93.92;96758.47;1683005;85;21012;-80
2021/12/11 03:01:22;;;;;;;36.70;16.55;;;;;;;3.05;94.17;96765.38;1684486;85;21485;-81
2021/12/11 03:03:46;;;;;;;35.70;16.67;;;;;;;3.04;93.96;96767.11;1683399;85;21059;-80
2021/12/11 03:06:20;;;;;;;38.15;16.23;;;;;;;3.03;93.97;96772.38;1684244;85;20988;-80
2021/12/11 03:08:46;;;;;;;35.60;16.40;;;;;;;3.03;93.85;96771.06;1683908;85;21024;-81
2021/12/11 03:11:18;;;;;;;34.53;17.05;;;;;;;3.04;93.73;96768.89;1684458;85;21019;-81
2021/12/11 03:13:50;;;;;;;39.27;17.70;;;;;;;3.02;93.58;96785.92;1684561;83;21040;-80
2021/12/11 03:16:19;;;;;;;41.37;16.77;;;;;;;2.96;94.02;96793.02;1684580;85;21654;-80
2021/12/11 03:18:45;;;;;;;40.73;17.15;;;;;;;2.90;93.85;96799.22;1684315;85;21016;-80
2021/12/11 03:21:13;;;;;;;41.77;17.25;;;;;;;2.86;94.02;96802.34;1684337;85;21466;-80
2021/12/11 03:23:40;;;;;;;39.00;17.17;;;;;;;2.86;93.94;96798.89;1684648;85;21148;-80
2021/12/11 03:26:08;;;;;;;44.35;17.37;;;;;;;2.87;93.73;96788.37;1684603;85;21052;-80
2021/12/11 03:28:35;;;;;;;41.15;17.05;;;;;;;2.74;95.21;96794.73;1684410;85;21604;-80
2021/12/11 03:31:06;;;;;;;43.60;17.45;;;;;;;2.65;95.06;96802.28;1684482;85;21087;-80
2021/12/11 03:33:39;;;;;;;39.27;16.73;;;;;;;2.56;96.00;96811.16;1684034;85;21544;-80
2021/12/11 03:36:10;;;;;;;43.52;17.25;;;;;;;2.53;94.59;96805.96;1684724;85;21132;-80
2021/12/11 03:38:41;;;;;;;42.48;16.48;;;;;;;2.47;95.52;96809.56;1684726;85;22148;-80
2021/12/11 03:41:08;;;;;;;38.23;16.52;;;;;;;2.46;95.00;96806.97;1684397;85;21011;-80
2021/12/11 03:43:36;;;;;;;40.45;16.80;;;;;;;2.46;94.82;96814.34;1684705;85;21194;-80
2021/12/11 03:46:07;;;;;;;40.95;17.05;;;;;;;2.50;94.61;96810.80;1684463;84;21036;-81
2021/12/11 03:48:39;;;;;;;44.33;17.02;;;;;;;2.52;94.38;96802.94;1684694;85;20992;-80
2021/12/11 03:51:10;;;;;;;41.20;17.37;;;;;;;2.54;94.10;96801.17;1682532;85;21458;-80
2021/12/11 03:53:37;;;;;;;45.90;19.05;;;;;;;2.55;94.26;96798.97;1683769;85;21517;-80
2021/12/11 03:56:09;;;;;;;41.08;16.57;;;;;;;2.58;94.36;96789.74;1684565;85;21051;-81
2021/12/11 03:58:38;;;;;;;48.20;18.50;;;;;;;2.60;94.92;96801.06;1684518;85;21055;-81
2021/12/11 04:01:18;;;;;;;43.23;17.35;;;;;;;2.57;94.62;96796.34;1684436;85;21035;-80
2021/12/11 04:03:48;;;;;;;41.28;18.05;;;;;;;2.56;94.39;96781.08;1684384;85;21043;-80
2021/12/11 04:06:18;;;;;;;40.50;17.48;;;;;;;2.57;94.08;96775.41;1684635;85;21059;-80
2021/12/11 04:08:46;;;;;;;43.68;17.98;;;;;;;2.59;93.85;96786.70;1684368;85;21488;-79
2021/12/11 04:11:18;;;;;;;40.12;16.60;;;;;;;2.54;95.62;96788.53;1684178;85;21063;-80
2021/12/11 04:13:46;;;;;;;45.08;18.57;;;;;;;2.54;95.50;96790.72;1684210;83;21029;-80
2021/12/11 04:16:15;;;;;;;40.35;17.05;;;;;;;2.58;94.66;96781.89;1683956;85;21433;-80
2021/12/11 04:18:42;;;;;;;36.05;16.40;;;;;;;2.63;94.68;96790.52;1684112;84;21048;-80
2021/12/11 04:21:09;;;;;;;43.45;17.45;;;;;;;2.70;94.63;96788.67;1684409;85;21477;-80
2021/12/11 04:23:36;;;;;;;42.27;17.07;;;;;;;2.79;94.76;96780.25;1684565;85;21072;-80
2021/12/11 04:26:05;;;;;;;43.10;18.17;;;;;;;2.86;94.74;96770.10;1684459;85;21012;-80
2021/12/11 04:28:36;;;;;;;50.17;19.75;;;;;;;2.93;94.67;96772.13;1684571;85;21055;-80
2021/12/11 04:31:08;;;;;;;41.05;16.90;;;;;;;3.00;94.93;96769.37;1684551;85;21044;-80
2021/12/11 04:33:40;;;;;;;38.23;16.52;;;;;;;3.06;94.63;96763.16;1684281;85;21028;-79
2021/12/11 04:36:14;;;;;;;39.42;16.65;;;;;;;3.08;94.48;96767.94;1684075;85;21066;-79
2021/12/11 04:38:42;;;;;;;35.03;16.30;;;;;;;3.07;94.26;96775.81;1684421;85;20996;-79
2021/12/11 04:41:15;;;;;;;37.03;16.70;;;;;;;3.08;94.12;96773.61;1684102;85;21007;-79
2021/12/11 04:43:43;;;;;;;37.30;16.05;;;;;;;3.06;94.40;96782.80;1684103;85;21082;-79
2021/12/11 04:46:11;;;;;;;34.98;15.48;;;;;;;3.01;94.24;96785.95;1684732;85;21329;-79
2021/12/11 04:51:26;;;;;;;32.28;14.28;;;;;;;2.73;92.45;96791.67;1683775;85;21008;-79
2021/12/11 04:54:05;;;;;;;30.10;12.80;;;;;;;2.44;92.41;96798.27;1682489;85;21115;-79
2021/12/11 04:56:48;;;;;;;;;;;;;;;2.25;93.08;96801.20;1684114;85;21043;-82
2021/12/11 04:59:22;;;;;;;27.82;12.03;;;;;;;2.19;93.19;96807.81;1680823;85;20192;-79
2021/12/11 05:04:19;;;;;;;31.33;12.13;;;;;;;1.81;95.04;96825.77;1684645;85;21032;-80
2021/12/11 05:07:03;;;;;;;28.92;12.05;;;;;;;1.76;94.07;96819.75;1682093;85;21464;-80
2021/12/11 05:09:32;;;;;;;27.22;12.00;;;;;;;1.74;93.94;96815.84;1682930;85;21067;-80
2021/12/11 05:12:11;;;;;;;28.07;13.10;;;;;;;1.70;95.24;96818.95;1683494;85;21446;-80
2021/12/11 05:14:35;;;;;;;26.87;11.33;;;;;;;1.71;94.33;96821.13;1697683;83;21531;-79
2021/12/11 05:17:04;;;;;;;30.85;12.25;;;;;;;1.66;94.88;96830.77;1713165;84;21114;-79
2021/12/11 05:19:30;;;;;;;30.17;12.43;;;;;;;1.61;95.24;96829.51;1712894;84;21030;-80
2021/12/11 05:21:57;;;;;;;27.85;12.00;;;;;;;1.64;94.41;96828.60;1713348;84;21078;-80
2021/12/11 05:24:24;;;;;;;22.37;11.85;;;;;;;1.68;94.32;96814.20;1712697;84;21011;-80
2021/12/11 05:26:51;;;;;;;28.38;11.90;;;;;;;1.69;95.04;96809.39;1713091;84;21035;-80
2021/12/11 05:29:18;;;;;;;31.02;11.93;;;;;;;1.64;95.39;96810.33;1712902;84;20995;-80
2021/12/11 05:31:45;;;;;;;25.65;11.18;;;;;;;1.64;95.27;96801.18;1712739;84;21054;-80
2021/12/11 05:34:12;;;;;;;25.92;11.63;;;;;;;1.71;95.09;96798.92;1713095;84;21018;-80
2021/12/11 05:36:40;;;;;;;29.00;11.95;;;;;;;1.77;94.91;96788.81;1713122;84;21432;-80
2021/12/11 05:39:12;;;;;;;27.02;11.25;;;;;;;1.81;94.95;96793.99;1712944;84;21006;-81
2021/12/11 05:41:41;;;;;;;28.95;11.75;;;;;;;1.86;94.95;96797.83;1711486;83;21042;-81
2021/12/11 05:44:10;;;;;;;25.82;11.22;;;;;;;1.85;94.92;96786.97;1713222;84;21388;-81
2021/12/11 05:46:38;;;;;;;27.87;11.68;;;;;;;1.83;94.92;96784.37;1713136;84;21100;-81
2021/12/11 05:49:06;;;;;;;27.60;12.15;;;;;;;1.77;94.88;96807.98;1713222;84;21121;-80
2021/12/11 05:51:38;;;;;;;24.67;11.10;;;;;;;1.75;94.56;96810.19;1713021;84;21086;-81
2021/12/11 05:54:14;;;;;;;25.12;10.43;;;;;;;1.66;94.49;96821.63;1713065;83;21054;-80
2021/12/11 05:56:43;;;;;;;25.25;11.97;;;;;;;1.57;94.92;96823.89;1713219;84;21007;-80
2021/12/11 05:59:14;;;;;;;23.98;10.98;;;;;;;1.51;95.38;96829.20;1713422;84;21498;-80
2021/12/11 06:01:46;;;;;;;27.58;11.30;;;;;;;1.47;95.13;96835.34;1712991;84;21448;-80
2021/12/11 06:04:18;;;;;;;29.67;12.30;;;;;;;1.44;94.71;96834.51;1712535;83;21042;-80
2021/12/11 06:06:47;;;;;;;29.75;12.00;;;;;;;1.39;95.55;96844.14;1712583;83;21511;-80
2021/12/11 06:09:18;;;;;;;31.62;11.83;;;;;;;1.34;96.39;96850.29;1713056;84;21058;-80
2021/12/11 06:11:48;;;;;;;28.92;12.33;;;;;;;1.32;95.05;96854.22;1713089;84;21018;-80
2021/12/11 06:14:17;;;;;;;28.95;12.30;;;;;;;1.31;95.93;96858.59;1715942;83;21022;-80
2021/12/11 06:16:46;;;;;;;31.15;11.55;;;;;;;1.30;95.56;96872.95;1726339;83;21026;-80
2021/12/11 06:19:13;;;;;;;29.72;12.20;;;;;;;1.31;95.69;96878.59;1726155;83;21495;-80
2021/12/11 06:21:43;;;;;;;30.40;12.15;;;;;;;1.30;96.20;96887.31;1726045;83;20983;-80
2021/12/11 06:24:08;;;;;;;27.10;11.03;;;;;;;1.33;96.33;96884.69;1726257;83;21034;-80
2021/12/11 06:26:35;;;;;;;27.93;11.83;;;;;;;1.33;96.29;96890.33;1726216;83;21030;-80
2021/12/11 06:29:03;;;;;;;28.70;11.80;;;;;;;1.36;95.79;96891.16;1725970;83;21068;-80
2021/12/11 06:31:30;;;;;;;30.40;12.45;;;;;;;1.37;96.25;96895.49;1726034;83;21139;-80
2021/12/11 06:33:57;;;;;;;30.40;13.08;;;;;;;1.41;95.74;96901.11;1726341;83;21017;-80
2021/12/11 06:36:26;;;;;;;30.27;12.23;;;;;;;1.50;95.86;96901.44;1726008;83;21511;-80
2021/12/11 06:38:58;;;;;;;35.90;11.57;;;;;;;1.53;96.30;96911.86;1726090;83;21463;-80
2021/12/11 06:41:30;;;;;;;32.33;12.37;;;;;;;1.60;96.19;96924.41;1726060;83;21057;-80
2021/12/11 06:43:57;;;;;;;27.85;11.70;;;;;;;1.64;96.14;96939.61;1725971;83;21082;-80
2021/12/11 06:46:24;;;;;;;27.70;11.85;;;;;;;1.73;96.28;96945.19;1726181;83;21026;-80
2021/12/11 06:48:50;;;;;;;32.55;12.75;;;;;;;1.77;96.09;96950.78;1726276;83;21050;-79
2021/12/11 06:51:17;;;;;;;30.27;11.63;;;;;;;1.79;95.94;96945.11;1725927;83;21132;-80
2021/12/11 06:53:49;;;;;;;34.08;13.08;;;;;;;1.85;96.10;96962.02;1726394;83;21129;-79
2021/12/11 06:56:20;;;;;;;30.85;12.78;;;;;;;1.81;95.52;96964.23;1725144;83;21488;-79
2021/12/11 06:58:48;;;;;;;34.33;12.70;;;;;;;1.77;95.37;96961.23;1726186;83;21039;-79
2021/12/11 07:01:15;;;;;;;30.77;11.95;;;;;;;1.72;95.52;96973.05;1726176;83;20998;-79
2021/12/11 07:03:42;;;;;;;29.37;12.82;;;;;;;1.70;96.07;96970.88;1726096;83;21029;-80
2021/12/11 07:06:09;;;;;;;31.02;13.20;;;;;;;1.69;95.45;96984.82;1726223;83;21021;-79
2021/12/11 07:08:38;;;;;;;32.40;12.80;;;;;;;1.62;95.97;96980.09;1726182;83;21429;-80
2021/12/11 07:11:08;;;;;;;40.10;13.08;;;;;;;1.63;95.55;96987.51;1725920;83;21058;-79
2021/12/11 07:13:34;;;;;;;32.48;12.43;;;;;;;1.60;96.04;96996.23;1726115;83;21460;-79
2021/12/11 07:16:01;;;;;;;38.25;13.62;;;;;;;1.56;95.93;97000.63;1726106;83;21038;-80
2021/12/11 07:18:29;;;;;;;37.03;12.88;;;;;;;1.54;96.03;97008.06;1726164;83;20974;-81
2021/12/11 07:20:56;;;;;;;30.62;12.25;;;;;;;1.52;96.23;97016.33;1726274;83;20990;-80
2021/12/11 07:23:23;;;;;;;32.23;11.25;;;;;;;1.50;96.49;97015.48;1726182;83;21089;-80
2021/12/11 07:26:00;;;;;;;31.33;12.43;;;;;;;1.50;96.02;97022.86;1725793;83;21018;-81
2021/12/11 07:28:27;;;;;;;34.53;12.55;;;;;;;1.54;95.47;97028.95;1726401;83;21050;-79
2021/12/11 07:30:57;;;;;;;32.05;11.10;;;;;;;1.58;95.76;97027.59;1725925;83;21432;-79
2021/12/11 07:33:24;;;;;;;31.93;12.98;;;;;;;1.64;95.37;97038.85;1726489;83;20998;-79
2021/12/11 07:35:52;;;;;;;27.40;11.43;;;;;;;1.68;95.66;97038.83;1726169;83;21077;-79
2021/12/11 07:38:20;;;;;;;25.65;11.50;;;;;;;1.73;95.57;97041.84;1726212;83;21006;-79
2021/12/11 07:40:55;;;;;;;33.78;12.35;;;;;;;1.82;95.72;97048.25;1726044;83;21379;-79
2021/12/11 07:43:24;;;;;;;29.98;12.07;;;;;;;1.90;95.91;97052.09;1725635;83;21071;-79
2021/12/11 07:45:52;;;;;;;32.53;13.05;;;;;;;1.99;95.91;97059.84;1725837;83;21037;-80
2021/12/11 07:48:19;;;;;;;30.65;12.70;;;;;;;2.04;95.60;97067.19;1726091;83;21042;-80
2021/12/11 07:50:47;;;;;;;30.72;10.85;;;;;;;2.10;95.78;97059.31;1726221;83;21074;-80
2021/12/11 07:53:16;;;;;;;26.25;10.65;;;;;;;2.16;95.38;97062.28;1726025;83;21065;-80
2021/12/11 07:55:43;;;;;;;28.52;11.45;;;;;;;2.18;95.30;97059.22;1726184;83;21060;-80
2021/12/11 07:58:10;;;;;;;31.80;12.98;;;;;;;2.20;95.11;97067.05;1726260;83;21026;-80
2021/12/11 08:00:40;;;;;;;32.35;12.93;;;;;;;2.18;94.85;97069.68;1726113;83;21423;-80
2021/12/11 08:03:10;;;;;;;28.90;12.33;;;;;;;2.18;94.89;97072.30;1726243;83;21046;-80
2021/12/11 08:05:39;;;;;;;31.07;11.97;;;;;;;2.23;95.10;97079.64;1726247;83;21026;-80
2021/12/11 08:08:09;;;;;;;32.30;14.30;;;;;;;2.28;94.92;97078.27;1726203;83;21538;-80
2021/12/11 08:10:37;;;;;;;36.03;14.75;;;;;;;2.32;95.06;97073.44;1726171;83;20999;-79
2021/12/11 08:13:07;;;;;;;43.78;18.75;;;;;;;2.32;94.58;97073.44;1725047;83;21124;-80
2021/12/11 08:15:34;;;;;;;40.30;16.12;;;;;;;2.32;94.13;97075.20;1718461;83;20999;-80
2021/12/11 08:18:04;;;;;;;34.78;13.85;;;;;;;2.35;94.53;97085.61;1712278;84;22159;-80
2021/12/11 08:20:34;;;;;;;31.00;13.00;;;;;;;2.37;94.60;97095.63;1712314;84;21023;-80
2021/12/11 08:23:01;;;;;;;31.75;13.10;;;;;;;2.36;94.31;97094.75;1712345;84;21035;-80
2021/12/11 08:25:32;;;;;;;32.85;13.88;;;;;;;2.41;94.31;97092.53;1712166;84;20991;-79
2021/12/11 08:27:59;;;;;;;33.67;13.93;;;;;;;2.35;93.73;97093.02;1711602;83;21454;-80
2021/12/11 08:30:30;;;;;;;27.85;12.28;;;;;;;2.30;93.44;97091.33;1711562;84;21061;-80
2021/12/11 08:32:57;;;;;;;31.48;12.58;;;;;;;2.23;93.67;97092.72;1713008;84;21033;-80
2021/12/11 08:35:24;;;;;;;29.37;11.95;;;;;;;2.11;94.02;97092.83;1711847;84;21507;-80
2021/12/11 08:37:52;;;;;;;29.77;12.68;;;;;;;2.12;94.10;97086.75;1713201;84;21106;-80
2021/12/11 08:40:24;;;;;;;30.55;13.08;;;;;;;2.19;94.06;97087.52;1722008;82;21014;-80
2021/12/11 08:42:54;;;;;;;33.23;13.28;;;;;;;2.22;93.90;97087.50;1754266;82;21521;-80
2021/12/11 08:45:25;;;;;;;29.82;12.68;;;;;;;2.26;94.04;97086.59;1753368;82;21096;-79
2021/12/11 08:47:56;;;;;;;27.02;12.05;;;;;;;2.30;93.91;97092.64;1754171;82;21077;-80
2021/12/11 08:50:27;;;;;;;30.52;12.35;;;;;;;2.36;94.30;97088.21;1754151;82;21475;-80
2021/12/11 08:52:56;;;;;;;27.02;12.25;;;;;;;2.42;94.22;97092.52;1754282;82;21007;-80
2021/12/11 08:55:30;;;;;;;25.27;11.83;;;;;;;2.49;94.10;97102.00;1754391;82;21036;-80
2021/12/11 08:57:59;;;;;;;;;;;;;;;2.54;94.06;97098.05;1756975;82;21113;-80
2021/12/11 09:00:42;;;;;;;25.30;11.65;;;;;;;2.61;93.92;97099.69;1754585;82;20177;-79
2021/12/11 09:03:26;;;;;;;24.77;12.25;;;;;;;2.64;93.02;97100.97;1753824;81;21420;-80
2021/12/11 09:06:04;;;;;;;28.02;12.53;;;;;;;2.66;93.27;97100.95;1754806;82;21050;-80
2021/12/11 09:08:52;;;;;;;25.00;12.10;;;;;;;2.71;93.26;97093.04;1751136;81;20993;-79
2021/12/11 09:11:26;;;;;;;23.35;10.82;;;;;;;2.75;92.93;97091.66;1754551;81;21153;-81
2021/12/11 09:14:01;;;;;;;18.15;9.78;;;;;;;2.77;92.66;97086.41;1773542;81;20926;-80
2021/12/11 09:16:36;;;;;;;20.82;9.90;;;;;;;2.82;92.81;97085.91;1765920;80;21029;-80
2021/12/11 09:19:08;;;;;;;20.57;10.55;;;;;;;2.88;92.42;97081.04;1749725;82;21078;-79
2021/12/11 09:21:46;;;;;;;21.77;10.40;;;;;;;2.95;92.32;97086.60;1749723;82;21032;-80
2021/12/11 09:24:25;;;;;;;20.97;10.60;;;;;;;3.01;92.30;97088.28;1749190;82;21052;-80
2021/12/11 09:27:03;;;;;;;20.82;10.15;;;;;;;3.07;92.31;97089.95;1749606;82;21056;-80
2021/12/11 09:29:35;;;;;;;16.48;8.95;;;;;;;3.13;91.79;97089.86;1749365;82;21063;-80
2021/12/11 09:32:28;;;;;;;14.28;8.53;;;;;;;3.15;91.61;97082.41;1749450;82;21048;-80
2021/12/11 09:35:00;;;;;;;15.23;8.15;;;;;;;3.15;89.40;97094.61;1749906;82;21461;-80
2021/12/11 09:37:29;;;;;;;14.35;7.55;;;;;;;3.19;91.17;97088.91;1747773;82;21080;-81
2021/12/11 09:40:15;;;;;;;12.63;7.58;;;;;;;3.26;91.15;97103.20;1749654;82;21429;-80
2021/12/11 09:42:41;;;;;;;13.55;6.97;;;;;;;3.34;91.07;97096.97;1752038;81;21019;-80
2021/12/11 09:45:16;;;;;;;14.53;7.33;;;;;;;3.39;90.98;97099.95;1756870;81;21012;-79
2021/12/11 09:47:51;;;;;;;14.03;6.70;;;;;;;3.44;90.92;97099.86;1756781;81;22217;-79
2021/12/11 09:50:21;;;;;;;14.63;7.90;;;;;;;3.52;90.15;97094.50;1756805;82;21020;-80
2021/12/11 09:52:49;;;;;;;14.73;7.65;;;;;;;3.56;90.23;97084.40;1757093;81;20964;-79
2021/12/11 09:55:24;;;;;;;15.20;8.00;;;;;;;3.61;89.49;97085.66;1757043;82;21000;-80
2021/12/11 09:57:55;;;;;;;14.30;7.72;;;;;;;3.59;88.01;97080.43;1755416;81;21060;-79
2021/12/11 10:00:33;;;;;;;15.25;7.78;;;;;;;3.57;88.67;97075.64;1757171;82;21083;-79
2021/12/11 10:03:02;;;;;;;13.18;7.45;;;;;;;3.62;89.00;97072.97;1755169;81;21000;-80
2021/12/11 10:05:42;;;;;;;15.68;8.08;;;;;;;3.68;89.21;97068.92;1756870;81;21012;-79
2021/12/11 10:11:15;;;;;;;14.00;7.90;;;;;;;3.81;88.62;97077.44;1727435;82;21075;-80
2021/12/11 10:13:57;;;;;;;13.40;7.50;;;;;;;3.86;89.00;97070.35;1756677;82;21117;-80
2021/12/11 10:16:37;;;;;;;14.18;7.92;;;;;;;3.88;88.32;97071.21;1751889;82;21037;-78
2021/12/11 10:19:05;;;;;;;18.02;8.25;;;;;;;3.85;88.54;97066.48;1748419;81;21027;-78
2021/12/11 10:21:46;;;;;;;16.42;8.28;;;;;;;3.81;88.55;97066.52;1755932;81;21008;-79
2021/12/11 10:24:17;;;;;;;18.87;9.08;;;;;;;3.82;88.91;97061.69;1767256;81;20998;-79
2021/12/11 10:26:44;;;;;;;19.90;10.00;;;;;;;3.81;88.83;97062.59;1774585;81;21020;-79
2021/12/11 10:29:14;;;;;;;21.42;9.78;;;;;;;3.81;89.02;97057.34;1769955;80;21493;-78
2021/12/11 10:31:51;;;;;;;22.98;10.65;;;;;;;3.81;89.15;97033.75;1774672;81;21012;-78
2021/12/11 10:34:23;;;;;;;25.32;10.65;;;;;;;3.80;89.12;97041.64;1774455;80;20986;-79
2021/12/11 10:36:58;;;;;;;24.75;11.03;;;;;;;3.81;89.24;97039.00;1775072;80;21029;-79
2021/12/11 10:39:26;;;;;;;26.82;10.93;;;;;;;3.86;89.18;97049.85;1774953;81;21052;-79
2021/12/11 10:41:53;;;;;;;23.52;11.30;;;;;;;3.90;89.43;97051.06;1774863;80;21461;-79
2021/12/11 10:44:30;;;;;;;25.57;12.15;;;;;;;3.94;89.61;97046.19;1775070;80;21049;-78
2021/12/11 10:47:08;;;;;;;30.30;13.40;;;;;;;4.00;89.78;97040.41;1775021;81;20981;-77
2021/12/11 10:49:36;;;;;;;30.92;13.68;;;;;;;4.06;89.79;97046.41;1773472;80;21517;-78
2021/12/11 10:52:08;;;;;;;27.98;13.78;;;;;;;4.11;90.05;97046.31;1774862;80;21016;-78
2021/12/11 10:54:36;;;;;;;29.90;13.30;;;;;;;4.17;89.66;97049.27;1761151;81;21049;-79
2021/12/11 10:57:03;;;;;;;29.72;12.58;;;;;;;4.20;89.56;97047.45;1774973;81;21421;-78
2021/12/11 10:59:34;;;;;;;26.65;12.55;;;;;;;4.22;90.04;97044.36;1774900;81;21443;-78
2021/12/11 11:02:09;;;;;;;22.25;10.68;;;;;;;4.25;89.92;97050.44;1774227;81;21114;-79
2021/12/11 11:04:46;;;;;;;22.15;10.80;;;;;;;4.28;89.67;97051.23;1759433;81;20981;-79
2021/12/11 11:07:15;;;;;;;21.10;9.98;;;;;;;4.29;89.80;97052.98;1740964;82;21001;-79
2021/12/11 11:09:43;;;;;;;23.15;10.78;;;;;;;4.36;89.83;97058.94;1742187;82;21017;-79
2021/12/11 11:12:14;;;;;;;24.55;11.33;;;;;;;4.38;89.81;97053.23;1742503;82;20982;-81
2021/12/11 11:14:42;;;;;;;25.17;10.60;;;;;;;4.35;88.96;97050.23;1742632;82;21100;-80
2021/12/11 11:17:16;;;;;;;24.43;10.80;;;;;;;4.30;87.91;97051.20;1721751;82;21025;-81
2021/12/11 11:19:46;;;;;;;23.60;10.45;;;;;;;4.22;88.46;97055.29;1742834;82;20993;-81
2021/12/11 11:22:18;;;;;;;27.85;12.15;;;;;;;4.21;89.24;97048.33;1742206;82;21016;-80
2021/12/11 11:24:56;;;;;;;24.72;11.22;;;;;;;4.26;89.56;97043.84;1741529;82;21017;-79
2021/12/11 11:27:23;;;;;;;25.10;11.43;;;;;;;4.29;89.25;97046.86;1727984;82;21092;-82
2021/12/11 11:29:50;;;;;;;26.52;12.45;;;;;;;4.31;89.20;97038.06;1750557;81;20961;-80
2021/12/11 11:32:31;;;;;;;24.07;11.25;;;;;;;4.31;89.10;97032.81;1749254;82;21473;-80
2021/12/11 11:34:56;;;;;;;24.43;11.28;;;;;;;4.27;88.33;97029.84;1749379;82;20997;-81
2021/12/11 11:37:22;;;;;;;30.92;13.68;;;;;;;4.22;88.40;97030.38;1749016;82;21021;-81
2021/12/11 11:39:49;;;;;;;33.33;13.13;;;;;;;4.19;88.54;97026.05;1742296;82;21029;-80
2021/12/11 11:42:20;;;;;;;26.40;12.10;;;;;;;4.18;88.70;97030.89;1740086;82;21478;-80
2021/12/11 11:44:51;;;;;;;22.90;11.57;;;;;;;4.20;88.73;97030.86;1742507;82;21434;-80
2021/12/11 11:47:20;;;;;;;29.52;12.35;;;;;;;4.21;88.81;97020.78;1739813;82;21048;-80
2021/12/11 11:49:48;;;;;;;34.58;15.08;;;;;;;4.21;88.64;97026.03;1744247;81;21458;-81
2021/12/11 11:52:19;;;;;;;35.25;15.05;;;;;;;4.20;88.66;97023.84;1748249;81;20984;-81
2021/12/11 11:54:50;;;;;;;28.73;12.82;;;;;;;4.19;88.70;97018.19;1743625;81;21078;-79
2021/12/11 11:57:34;;;;;;;28.45;12.28;;;;;;;4.19;88.75;97016.03;1740769;81;21081;-80